sensor_id;sensor_type;location;lat;lon;timestamp;pressure;altitude;pressure_sealevel;temperature;humidity
56420;BME280;42323;52.170;7.538;2022-11-13T05:48:18;102169.50;;;2.21;89.94
56420;BME280;42323;52.170;7.538;2022-11-13T05:50:44;102169.50;;;2.21;89.94
56420;BME280;42323;52.170;7.538;2022-11-13T05:53:11;102168.50;;;2.23;90.14
56420;BME280;42323;52.170;7.538;2022-11-13T05:55:38;102146.50;;;2.16;90.27
56420;BME280;42323;52.170;7.538;2022-11-13T05:58:05;102139.91;;;2.11;90.04
56420;BME280;42323;52.170;7.538;2022-11-13T06:00:32;102120.47;;;2.04;90.24
56420;BME280;42323;52.170;7.538;2022-11-13T06:02:59;102159.75;;;2.26;90.36
56420;BME280;42323;52.170;7.538;2022-11-13T06:05:26;102141.81;;;2.07;90.45
56420;BME280;42323;52.170;7.538;2022-11-13T06:07:52;102150.31;;;2.09;90.64
56420;BME280;42323;52.170;7.538;2022-11-13T06:10:19;102119.28;;;1.93;90.14
56420;BME280;42323;52.170;7.538;2022-11-13T06:12:46;102121.16;;;1.91;90.79
56420;BME280;42323;52.170;7.538;2022-11-13T06:15:12;102127.63;;;1.98;90.60
56420;BME280;42323;52.170;7.538;2022-11-13T06:17:39;102142.97;;;2.01;90.23
56420;BME280;42323;52.170;7.538;2022-11-13T06:20:10;102145.56;;;2.01;90.07
56420;BME280;42323;52.170;7.538;2022-11-13T06:22:37;102141.22;;;2.02;90.29
56420;BME280;42323;52.170;7.538;2022-11-13T06:25:04;102150.47;;;2.06;90.50
56420;BME280;42323;52.170;7.538;2022-11-13T06:27:31;102104.63;;;1.78;90.44
56420;BME280;42323;52.170;7.538;2022-11-13T06:29:57;102132.16;;;1.95;90.05
56420;BME280;42323;52.170;7.538;2022-11-13T06:32:24;102144.88;;;1.98;90.04
56420;BME280;42323;52.170;7.538;2022-11-13T06:34:51;102138.81;;;1.99;90.61
56420;BME280;42323;52.170;7.538;2022-11-13T06:37:17;102145.81;;;1.97;89.86
56420;BME280;42323;52.170;7.538;2022-11-13T06:39:44;102127.25;;;1.90;89.78
56420;BME280;42323;52.170;7.538;2022-11-13T06:42:11;102138.47;;;1.89;90.29
56420;BME280;42323;52.170;7.538;2022-11-13T06:44:38;102112.69;;;1.72;90.39
56420;BME280;42323;52.170;7.538;2022-11-13T06:47:04;102129.06;;;1.88;89.78
56420;BME280;42323;52.170;7.538;2022-11-13T06:49:31;102125.31;;;1.78;90.14
56420;BME280;42323;52.170;7.538;2022-11-13T06:51:58;102124.38;;;1.79;90.48
56420;BME280;42323;52.170;7.538;2022-11-13T06:54:25;102136.91;;;1.87;90.06
56420;BME280;42323;52.170;7.538;2022-11-13T06:56:52;102120.19;;;1.76;90.81
56420;BME280;42323;52.170;7.538;2022-11-13T06:59:18;102129.22;;;1.85;90.67
56420;BME280;42323;52.170;7.538;2022-11-13T07:01:45;102110.63;;;1.79;90.33
56420;BME280;42323;52.170;7.538;2022-11-13T07:04:12;102115.56;;;1.83;90.01
56420;BME280;42323;52.170;7.538;2022-11-13T07:06:39;102120.31;;;1.91;90.37
56420;BME280;42323;52.170;7.538;2022-11-13T07:09:07;102095.81;;;1.82;90.01
56420;BME280;42323;52.170;7.538;2022-11-13T07:11:33;102119.88;;;1.98;90.43
56420;BME280;42323;52.170;7.538;2022-11-13T07:14:01;102108.91;;;1.95;89.62
56420;BME280;42323;52.170;7.538;2022-11-13T07:16:27;102114.66;;;2.00;90.21
56420;BME280;42323;52.170;7.538;2022-11-13T07:19:14;102101.22;;;1.93;90.35
56420;BME280;42323;52.170;7.538;2022-11-13T07:21:41;102116.22;;;2.03;90.08
56420;BME280;42323;52.170;7.538;2022-11-13T07:24:08;102055.44;;;1.64;90.02
56420;BME280;42323;52.170;7.538;2022-11-13T07:26:42;102080.88;;;1.87;89.91
56420;BME280;42323;52.170;7.538;2022-11-13T07:29:09;102118.31;;;2.12;89.65
56420;BME280;42323;52.170;7.538;2022-11-13T07:31:36;102101.47;;;2.05;89.76
56420;BME280;42323;52.170;7.538;2022-11-13T07:34:03;102117.03;;;2.19;89.81
56420;BME280;42323;52.170;7.538;2022-11-13T07:36:30;102087.97;;;1.99;89.94
56420;BME280;42323;52.170;7.538;2022-11-13T07:38:57;102072.53;;;1.98;90.31
56420;BME280;42323;52.170;7.538;2022-11-13T07:41:25;102093.94;;;2.16;89.55
56420;BME280;42323;52.170;7.538;2022-11-13T07:43:52;102123.69;;;2.39;90.18
56420;BME280;42323;52.170;7.538;2022-11-13T07:46:19;102110.94;;;2.36;89.86
56420;BME280;42323;52.170;7.538;2022-11-13T07:48:45;102104.56;;;2.41;89.76
56420;BME280;42323;52.170;7.538;2022-11-13T07:51:12;102068.59;;;2.22;89.57
56420;BME280;42323;52.170;7.538;2022-11-13T07:53:39;102105.81;;;2.50;89.62
56420;BME280;42323;52.170;7.538;2022-11-13T07:56:06;102099.47;;;2.56;90.14
56420;BME280;42323;52.170;7.538;2022-11-13T07:58:33;102109.03;;;2.69;90.45
56420;BME280;42323;52.170;7.538;2022-11-13T08:01:01;102109.41;;;2.78;89.63
56420;BME280;42323;52.170;7.538;2022-11-13T08:03:29;102102.13;;;2.84;90.13
56420;BME280;42323;52.170;7.538;2022-11-13T08:06:01;102097.88;;;2.83;89.49
56420;BME280;42323;52.170;7.538;2022-11-13T08:08:29;102074.94;;;2.77;89.69
56420;BME280;42323;52.170;7.538;2022-11-13T08:10:56;102107.81;;;3.05;89.76
56420;BME280;42323;52.170;7.538;2022-11-13T08:13:23;102082.84;;;3.04;89.83
56420;BME280;42323;52.170;7.538;2022-11-13T08:15:50;102078.13;;;3.11;90.25
56420;BME280;42323;52.170;7.538;2022-11-13T08:18:17;102079.31;;;3.19;89.83
56420;BME280;42323;52.170;7.538;2022-11-13T08:20:43;102066.19;;;3.22;89.59
56420;BME280;42323;52.170;7.538;2022-11-13T08:23:10;102099.59;;;3.41;89.53
56420;BME280;42323;52.170;7.538;2022-11-13T08:25:37;102033.19;;;3.12;90.00
56420;BME280;42323;52.170;7.538;2022-11-13T08:28:04;102081.91;;;3.48;89.66
56420;BME280;42323;52.170;7.538;2022-11-13T08:30:38;102094.84;;;3.62;89.94
56420;BME280;42323;52.170;7.538;2022-11-13T08:33:05;102048.34;;;3.46;89.97
56420;BME280;42323;52.170;7.538;2022-11-13T08:35:32;102095.69;;;3.77;89.67
56420;BME280;42323;52.170;7.538;2022-11-13T08:38:03;102038.41;;;3.53;90.01
56420;BME280;42323;52.170;7.538;2022-11-13T08:40:30;102082.50;;;3.94;90.09
56420;BME280;42323;52.170;7.538;2022-11-13T08:43:01;102039.47;;;3.77;89.55
56420;BME280;42323;52.170;7.538;2022-11-13T08:45:28;102072.47;;;4.02;89.86
56420;BME280;42323;52.170;7.538;2022-11-13T08:48:03;102084.78;;;4.26;89.81
56420;BME280;42323;52.170;7.538;2022-11-13T08:50:31;102078.69;;;4.40;89.55
56420;BME280;42323;52.170;7.538;2022-11-13T08:53:00;102084.66;;;4.55;89.39
56420;BME280;42323;52.170;7.538;2022-11-13T08:55:26;102089.06;;;4.67;89.55
56420;BME280;42323;52.170;7.538;2022-11-13T08:57:57;102085.53;;;4.81;88.59
56420;BME280;42323;52.170;7.538;2022-11-13T09:00:25;102082.22;;;4.91;88.49
56420;BME280;42323;52.170;7.538;2022-11-13T09:02:57;102074.41;;;5.04;88.16
56420;BME280;42323;52.170;7.538;2022-11-13T09:05:24;102078.66;;;5.18;88.12
56420;BME280;42323;52.170;7.538;2022-11-13T09:07:57;102073.47;;;5.31;88.09
56420;BME280;42323;52.170;7.538;2022-11-13T09:10:25;102069.63;;;5.36;87.30
56420;BME280;42323;52.170;7.538;2022-11-13T09:13:00;102076.97;;;5.55;87.13
56420;BME280;42323;52.170;7.538;2022-11-13T09:15:30;102064.78;;;5.56;86.79
56420;BME280;42323;52.170;7.538;2022-11-13T09:17:58;102073.19;;;5.72;86.21
56420;BME280;42323;52.170;7.538;2022-11-13T09:20:27;102036.59;;;5.62;85.20
56420;BME280;42323;52.170;7.538;2022-11-13T09:22:58;102073.84;;;5.99;85.04
56420;BME280;42323;52.170;7.538;2022-11-13T09:25:26;102067.03;;;6.10;84.09
56420;BME280;42323;52.170;7.538;2022-11-13T09:28:00;102060.97;;;6.22;82.73
56420;BME280;42323;52.170;7.538;2022-11-13T09:30:29;102064.41;;;6.34;82.82
56420;BME280;42323;52.170;7.538;2022-11-13T09:32:58;102054.41;;;6.40;81.68
56420;BME280;42323;52.170;7.538;2022-11-13T09:35:27;102058.59;;;6.65;80.03
56420;BME280;42323;52.170;7.538;2022-11-13T09:38:02;102059.25;;;7.47;77.02
56420;BME280;42323;52.170;7.538;2022-11-13T09:48:51;102010.16;;;13.84;53.13
56420;BME280;42323;52.170;7.538;2022-11-13T09:51:31;102040.66;;;14.43;51.09
56420;BME280;42323;52.170;7.538;2022-11-13T09:54:03;102024.50;;;13.97;51.66
56420;BME280;42323;52.170;7.538;2022-11-13T10:02:49;102032.09;;;12.03;56.15
56420;BME280;42323;52.170;7.538;2022-11-13T10:05:30;102030.16;;;11.60;57.48
56420;BME280;42323;52.170;7.538;2022-11-13T10:08:13;102029.81;;;11.73;57.48
56420;BME280;42323;52.170;7.538;2022-11-13T10:13:41;101984.19;;;11.11;58.65
56420;BME280;42323;52.170;7.538;2022-11-13T10:19:44;101961.81;;;11.52;57.23
56420;BME280;42323;52.170;7.538;2022-11-13T10:22:29;101975.47;;;11.73;57.37
56420;BME280;42323;52.170;7.538;2022-11-13T10:25:21;101994.41;;;12.13;56.35
56420;BME280;42323;52.170;7.538;2022-11-13T10:27:54;101949.31;;;12.25;55.04
56420;BME280;42323;52.170;7.538;2022-11-13T10:30:22;101979.88;;;13.13;53.75
56420;BME280;42323;52.170;7.538;2022-11-13T10:32:49;101984.78;;;14.23;49.96
56420;BME280;42323;52.170;7.538;2022-11-13T10:38:23;101978.69;;;17.00;42.30
56420;BME280;42323;52.170;7.538;2022-11-13T10:40:51;101978.69;;;17.00;42.30
56420;BME280;42323;52.170;7.538;2022-11-13T10:43:21;101968.41;;;19.23;37.89
56420;BME280;42323;52.170;7.538;2022-11-13T10:45:56;101968.41;;;19.23;37.89
56420;BME280;42323;52.170;7.538;2022-11-13T10:48:29;101952.16;;;20.12;37.65
56420;BME280;42323;52.170;7.538;2022-11-13T10:51:03;101955.19;;;20.56;36.41
56420;BME280;42323;52.170;7.538;2022-11-13T10:53:41;101918.09;;;20.99;35.46
56420;BME280;42323;52.170;7.538;2022-11-13T10:56:29;101917.19;;;21.75;33.82
56420;BME280;42323;52.170;7.538;2022-11-13T10:59:10;101928.69;;;22.19;32.84
56420;BME280;42323;52.170;7.538;2022-11-13T11:01:38;101928.63;;;22.62;32.22
56420;BME280;42323;52.170;7.538;2022-11-13T11:04:22;101906.88;;;22.77;32.02
56420;BME280;42323;52.170;7.538;2022-11-13T11:06:50;101923.03;;;23.42;30.99
56420;BME280;42323;52.170;7.538;2022-11-13T11:09:39;101894.44;;;23.54;30.98
56420;BME280;42323;52.170;7.538;2022-11-13T11:12:16;101902.41;;;23.96;30.12
56420;BME280;42323;52.170;7.538;2022-11-13T11:22:52;101880.38;;;25.15;28.18
56420;BME280;42323;52.170;7.538;2022-11-13T11:25:47;101881.59;;;25.41;28.13
56420;BME280;42323;52.170;7.538;2022-11-13T11:28:36;101888.75;;;25.69;27.26
56420;BME280;42323;52.170;7.538;2022-11-13T11:31:17;101883.63;;;25.85;27.54
56420;BME280;42323;52.170;7.538;2022-11-13T11:33:53;101870.09;;;25.96;27.35
56420;BME280;42323;52.170;7.538;2022-11-13T11:39:05;101874.59;;;26.35;26.15
56420;BME280;42323;52.170;7.538;2022-11-13T11:41:49;101864.06;;;26.55;26.19
56420;BME280;42323;52.170;7.538;2022-11-13T11:44:26;101858.69;;;26.77;25.97
56420;BME280;42323;52.170;7.538;2022-11-13T11:46:55;101866.88;;;26.92;25.94
56420;BME280;42323;52.170;7.538;2022-11-13T11:49:24;101838.47;;;27.07;25.87
56420;BME280;42323;52.170;7.538;2022-11-13T11:52:34;101852.09;;;27.22;25.91
56420;BME280;42323;52.170;7.538;2022-11-13T11:57:58;101856.84;;;27.47;26.39
56420;BME280;42323;52.170;7.538;2022-11-13T12:00:30;101848.56;;;27.59;26.10
56420;BME280;42323;52.170;7.538;2022-11-13T12:09:05;101838.66;;;27.64;25.59
56420;BME280;42323;52.170;7.538;2022-11-13T12:11:29;101837.53;;;27.55;26.03
56420;BME280;42323;52.170;7.538;2022-11-13T12:14:15;101832.44;;;27.64;25.85
56420;BME280;42323;52.170;7.538;2022-11-13T12:17:20;101828.81;;;27.85;25.84
56420;BME280;42323;52.170;7.538;2022-11-13T12:20:13;101822.88;;;27.88;25.93
56420;BME280;42323;52.170;7.538;2022-11-13T12:25:31;101818.69;;;28.23;25.36
56420;BME280;42323;52.170;7.538;2022-11-13T12:28:32;101816.91;;;28.39;25.40
56420;BME280;42323;52.170;7.538;2022-11-13T12:34:25;101813.72;;;29.08;25.07
56420;BME280;42323;52.170;7.538;2022-11-13T12:36:54;101816.69;;;28.86;24.79
56420;BME280;42323;52.170;7.538;2022-11-13T12:39:39;101815.03;;;28.75;25.55
56420;BME280;42323;52.170;7.538;2022-11-13T12:42:30;101806.94;;;28.75;25.46
56420;BME280;42323;52.170;7.538;2022-11-13T12:45:18;101776.19;;;28.56;25.30
56420;BME280;42323;52.170;7.538;2022-11-13T12:47:46;101805.34;;;28.79;25.20
56420;BME280;42323;52.170;7.538;2022-11-13T12:50:25;101791.31;;;28.82;24.51
56420;BME280;42323;52.170;7.538;2022-11-13T12:53:03;101802.38;;;29.21;24.66
56420;BME280;42323;52.170;7.538;2022-11-13T12:55:33;101800.72;;;29.46;23.93
56420;BME280;42323;52.170;7.538;2022-11-13T12:58:26;101804.66;;;29.79;23.72
56420;BME280;42323;52.170;7.538;2022-11-13T13:01:00;101803.00;;;29.93;23.00
56420;BME280;42323;52.170;7.538;2022-11-13T13:09:02;101790.34;;;29.79;22.95
56420;BME280;42323;52.170;7.538;2022-11-13T13:14:43;101778.25;;;29.61;24.63
56420;BME280;42323;52.170;7.538;2022-11-13T13:19:40;101764.00;;;29.35;24.77
56420;BME280;42323;52.170;7.538;2022-11-13T13:22:10;101765.41;;;29.12;25.61
56420;BME280;42323;52.170;7.538;2022-11-13T13:24:37;101746.53;;;28.76;26.16
56420;BME280;42323;52.170;7.538;2022-11-13T13:27:25;101757.00;;;26.79;28.70
56420;BME280;42323;52.170;7.538;2022-11-13T13:29:53;101761.03;;;25.57;30.20
56420;BME280;42323;52.170;7.538;2022-11-13T13:32:51;101750.94;;;26.35;28.25
56420;BME280;42323;52.170;7.538;2022-11-13T13:35:56;101744.41;;;26.85;25.82
56420;BME280;42323;52.170;7.538;2022-11-13T13:38:32;101736.41;;;26.95;25.04
56420;BME280;42323;52.170;7.538;2022-11-13T13:41:13;101735.28;;;27.28;24.63
56420;BME280;42323;52.170;7.538;2022-11-13T13:43:46;101730.03;;;27.48;23.65
56420;BME280;42323;52.170;7.538;2022-11-13T13:46:24;101693.44;;;27.58;24.02
56420;BME280;42323;52.170;7.538;2022-11-13T13:48:54;101711.31;;;27.84;23.32
56420;BME280;42323;52.170;7.538;2022-11-13T13:53:58;101709.50;;;28.10;22.58
56420;BME280;42323;52.170;7.538;2022-11-13T13:56:26;101719.75;;;28.08;22.41
56420;BME280;42323;52.170;7.538;2022-11-13T13:58:53;101696.28;;;28.04;22.64
56420;BME280;42323;52.170;7.538;2022-11-13T14:01:31;101716.81;;;28.25;22.81
56420;BME280;42323;52.170;7.538;2022-11-13T14:04:20;101699.78;;;28.19;22.24
56420;BME280;42323;52.170;7.538;2022-11-13T14:06:55;101692.00;;;28.28;22.36
56420;BME280;42323;52.170;7.538;2022-11-13T14:09:26;101698.75;;;28.41;21.42
56420;BME280;42323;52.170;7.538;2022-11-13T14:11:59;101697.66;;;28.32;20.98
56420;BME280;42323;52.170;7.538;2022-11-13T14:14:38;101693.59;;;28.09;20.57
56420;BME280;42323;52.170;7.538;2022-11-13T14:17:05;101680.63;;;27.22;21.40
56420;BME280;42323;52.170;7.538;2022-11-13T14:19:32;101682.28;;;26.22;22.07
56420;BME280;42323;52.170;7.538;2022-11-13T14:22:01;101688.50;;;25.13;23.30
56420;BME280;42323;52.170;7.538;2022-11-13T14:24:45;101678.00;;;22.94;25.58
56420;BME280;42323;52.170;7.538;2022-11-13T14:27:20;101687.25;;;21.41;26.81
56420;BME280;42323;52.170;7.538;2022-11-13T14:29:54;101690.56;;;20.37;27.42
56420;BME280;42323;52.170;7.538;2022-11-13T14:32:27;101675.81;;;19.51;29.09
56420;BME280;42323;52.170;7.538;2022-11-13T14:34:58;101691.44;;;18.94;30.68
56420;BME280;42323;52.170;7.538;2022-11-13T14:37:31;101665.59;;;18.22;31.67
56420;BME280;42323;52.170;7.538;2022-11-13T14:40:02;101678.06;;;17.73;31.89
56420;BME280;42323;52.170;7.538;2022-11-13T14:42:36;101632.78;;;16.92;33.15
56420;BME280;42323;52.170;7.538;2022-11-13T14:47:55;101693.41;;;16.66;34.84
56420;BME280;42323;52.170;7.538;2022-11-13T14:50:23;101691.72;;;16.37;36.27
56420;BME280;42323;52.170;7.538;2022-11-13T14:52:55;101675.50;;;16.03;35.94
56420;BME280;42323;52.170;7.538;2022-11-13T14:55:31;101685.72;;;15.92;36.56
56420;BME280;42323;52.170;7.538;2022-11-13T14:57:58;101646.00;;;15.41;37.80
56420;BME280;42323;52.170;7.538;2022-11-13T15:00:35;101671.69;;;15.32;38.36
56420;BME280;42323;52.170;7.538;2022-11-13T15:03:04;101672.38;;;14.96;39.12
56420;BME280;42323;52.170;7.538;2022-11-13T15:05:31;101670.25;;;14.77;39.80
56420;BME280;42323;52.170;7.538;2022-11-13T15:07:58;101680.19;;;14.67;40.53
56420;BME280;42323;52.170;7.538;2022-11-13T15:10:27;101677.78;;;14.34;40.79
56420;BME280;42323;52.170;7.538;2022-11-13T15:12:54;101679.50;;;14.19;41.94
56420;BME280;42323;52.170;7.538;2022-11-13T15:15:26;101688.78;;;14.06;42.33
56420;BME280;42323;52.170;7.538;2022-11-13T15:17:54;101685.94;;;13.85;42.98
56420;BME280;42323;52.170;7.538;2022-11-13T15:20:24;101669.56;;;13.59;42.80
56420;BME280;42323;52.170;7.538;2022-11-13T15:22:54;63019.00;;;-145.28;100.00
56420;BME280;42323;52.170;7.538;2022-11-13T15:25:22;63019.00;;;-145.28;100.00
56420;BME280;42323;52.170;7.538;2022-11-13T15:27:52;63019.00;;;-145.28;100.00
56420;BME280;42323;52.170;7.538;2022-11-13T15:30:19;63019.00;;;-145.28;100.00
56420;BME280;42323;52.170;7.538;2022-11-13T15:32:46;63019.00;;;-145.28;100.00
56420;BME280;42323;52.170;7.538;2022-11-13T15:35:16;63019.00;;;-145.28;100.00
56420;BME280;42323;52.170;7.538;2022-11-13T15:37:43;63019.00;;;-145.28;100.00
56420;BME280;42323;52.170;7.538;2022-11-13T15:40:12;101675.63;;;12.95;100.00
56420;BME280;42323;52.170;7.538;2022-11-13T15:42:39;101629.59;;;12.50;53.20
56420;BME280;42323;52.170;7.538;2022-11-13T15:45:12;101658.50;;;12.59;54.41
56420;BME280;42323;52.170;7.538;2022-11-13T15:47:40;101666.38;;;12.50;55.49
56420;BME280;42323;52.170;7.538;2022-11-13T15:50:06;101648.28;;;12.23;56.70
56420;BME280;42323;52.170;7.538;2022-11-13T15:52:45;101633.97;;;12.01;57.57
56420;BME280;42323;52.170;7.538;2022-11-13T15:57:45;101673.81;;;11.88;58.87
56420;BME280;42323;52.170;7.538;2022-11-13T16:00:14;101676.84;;;11.75;59.24
56420;BME280;42323;52.170;7.538;2022-11-13T16:02:41;101673.31;;;11.59;59.64
56420;BME280;42323;52.170;7.538;2022-11-13T16:05:08;101653.81;;;11.35;60.73
56420;BME280;42323;52.170;7.538;2022-11-13T16:07:35;101663.91;;;11.22;61.18
56420;BME280;42323;52.170;7.538;2022-11-13T16:10:08;101668.56;;;11.02;62.24
56420;BME280;42323;52.170;7.538;2022-11-13T16:12:36;101620.50;;;10.58;62.76
56420;BME280;42323;52.170;7.538;2022-11-13T16:15:04;101659.44;;;10.70;63.62
56420;BME280;42323;52.170;7.538;2022-11-13T16:17:33;101664.09;;;10.59;63.97
56420;BME280;42323;52.170;7.538;2022-11-13T16:20:04;101659.81;;;10.40;64.52
56420;BME280;42323;52.170;7.538;2022-11-13T16:22:33;101662.81;;;10.27;64.89
56420;BME280;42323;52.170;7.538;2022-11-13T16:24:59;101640.06;;;10.00;65.86
56420;BME280;42323;52.170;7.538;2022-11-13T16:27:30;101659.09;;;10.02;66.26
56420;BME280;42323;52.170;7.538;2022-11-13T16:29:57;101631.44;;;9.72;66.56
56420;BME280;42323;52.170;7.538;2022-11-13T16:32:31;101631.44;;;9.72;66.56
56420;BME280;42323;52.170;7.538;2022-11-13T16:34:58;63019.00;;;-145.28;100.00
56420;BME280;42323;52.170;7.538;2022-11-13T16:37:25;63019.00;;;-145.28;100.00
56420;BME280;42323;52.170;7.538;2022-11-13T16:39:52;63019.00;;;-145.28;100.00
56420;BME280;42323;52.170;7.538;2022-11-13T16:42:18;63019.00;;;-145.28;100.00
56420;BME280;42323;52.170;7.538;2022-11-13T16:44:45;63019.00;;;-145.28;100.00
56420;BME280;42323;52.170;7.538;2022-11-13T16:47:23;63019.00;;;-145.28;100.00
56420;BME280;42323;52.170;7.538;2022-11-13T16:49:50;63019.00;;;-145.28;100.00
56420;BME280;42323;52.170;7.538;2022-11-13T16:52:18;63019.00;;;-145.28;100.00
56420;BME280;42323;52.170;7.538;2022-11-13T16:54:44;63019.00;;;-145.28;100.00
56420;BME280;42323;52.170;7.538;2022-11-13T16:57:12;63019.00;;;-145.28;100.00
56420;BME280;42323;52.170;7.538;2022-11-13T16:59:39;63019.00;;;-145.28;100.00
56420;BME280;42323;52.170;7.538;2022-11-13T17:02:15;63019.00;;;-145.28;100.00
56420;BME280;42323;52.170;7.538;2022-11-13T17:04:43;63019.00;;;-145.28;100.00
56420;BME280;42323;52.170;7.538;2022-11-13T17:07:12;63019.00;;;-145.28;100.00
56420;BME280;42323;52.170;7.538;2022-11-13T17:09:43;63019.00;;;-145.28;100.00
56420;BME280;42323;52.170;7.538;2022-11-13T17:12:10;63019.00;;;-145.28;100.00
56420;BME280;42323;52.170;7.538;2022-11-13T17:14:37;63019.00;;;-145.28;100.00
56420;BME280;42323;52.170;7.538;2022-11-13T17:17:05;63019.00;;;-145.28;100.00
56420;BME280;42323;52.170;7.538;2022-11-13T17:19:33;63019.00;;;-145.28;100.00
56420;BME280;42323;52.170;7.538;2022-11-13T17:22:00;63019.00;;;-145.28;100.00
56420;BME280;42323;52.170;7.538;2022-11-13T17:24:26;63019.00;;;-145.28;100.00
56420;BME280;42323;52.170;7.538;2022-11-13T17:26:53;63019.00;;;-145.28;100.00
56420;BME280;42323;52.170;7.538;2022-11-13T17:29:20;63019.00;;;-145.28;100.00
56420;BME280;42323;52.170;7.538;2022-11-13T17:31:47;63019.00;;;-145.28;100.00
56420;BME280;42323;52.170;7.538;2022-11-13T17:34:14;63019.00;;;-145.28;100.00
56420;BME280;42323;52.170;7.538;2022-11-13T17:36:41;63019.00;;;-145.28;100.00
56420;BME280;42323;52.170;7.538;2022-11-13T17:39:08;63019.00;;;-145.28;100.00
56420;BME280;42323;52.170;7.538;2022-11-13T17:41:34;63019.00;;;-145.28;100.00
56420;BME280;42323;52.170;7.538;2022-11-13T17:44:03;63019.00;;;-145.28;100.00
56420;BME280;42323;52.170;7.538;2022-11-13T17:46:29;63019.00;;;-145.28;100.00
56420;BME280;42323;52.170;7.538;2022-11-13T17:48:57;63019.00;;;-145.28;100.00
56420;BME280;42323;52.170;7.538;2022-11-13T17:51:23;63019.00;;;-145.28;100.00
56420;BME280;42323;52.170;7.538;2022-11-13T17:53:50;63019.00;;;-145.28;100.00
56420;BME280;42323;52.170;7.538;2022-11-13T17:56:17;63019.00;;;-145.28;100.00
56420;BME280;42323;52.170;7.538;2022-11-13T17:58:45;63019.00;;;-145.28;100.00
56420;BME280;42323;52.170;7.538;2022-11-13T18:01:16;63019.00;;;-145.28;100.00
56420;BME280;42323;52.170;7.538;2022-11-13T18:03:45;63019.00;;;-145.28;100.00
56420;BME280;42323;52.170;7.538;2022-11-13T18:06:17;63019.00;;;-145.28;100.00
56420;BME280;42323;52.170;7.538;2022-11-13T18:08:45;63019.00;;;-145.28;100.00
56420;BME280;42323;52.170;7.538;2022-11-13T18:11:15;63019.00;;;-145.28;100.00
56420;BME280;42323;52.170;7.538;2022-11-13T18:13:42;63019.00;;;-145.28;100.00
56420;BME280;42323;52.170;7.538;2022-11-13T18:16:12;101615.25;;;7.15;74.92
56420;BME280;42323;52.170;7.538;2022-11-13T18:18:40;101596.91;;;6.95;74.74
56420;BME280;42323;52.170;7.538;2022-11-13T18:21:09;101596.91;;;6.95;74.74
56420;BME280;42323;52.170;7.538;2022-11-13T18:23:54;101607.53;;;6.83;75.49
56420;BME280;42323;52.170;7.538;2022-11-13T18:26:21;101577.25;;;6.61;76.02
56420;BME280;42323;52.170;7.538;2022-11-13T18:28:48;101601.13;;;6.66;76.12
56420;BME280;42323;52.170;7.538;2022-11-13T18:31:16;101600.66;;;6.61;76.05
56420;BME280;42323;52.170;7.538;2022-11-13T18:33:44;101607.53;;;6.62;76.25
56420;BME280;42323;52.170;7.538;2022-11-13T18:36:11;101582.16;;;6.43;76.71
56420;BME280;42323;52.170;7.538;2022-11-13T18:38:38;101606.22;;;6.56;77.20
56420;BME280;42323;52.170;7.538;2022-11-13T18:41:07;101588.22;;;6.43;76.88
56420;BME280;42323;52.170;7.538;2022-11-13T18:43:34;101591.50;;;6.45;76.91
56420;BME280;42323;52.170;7.538;2022-11-13T18:46:04;101562.69;;;6.26;76.82
56420;BME280;42323;52.170;7.538;2022-11-13T18:48:38;101585.78;;;6.31;77.00
56420;BME280;42323;52.170;7.538;2022-11-13T18:51:08;101590.13;;;6.30;77.63
56420;BME280;42323;52.170;7.538;2022-11-13T18:53:36;101585.44;;;6.24;77.74
56420;BME280;42323;52.170;7.538;2022-11-13T18:56:05;101567.63;;;6.08;77.90
56420;BME280;42323;52.170;7.538;2022-11-13T18:58:37;101592.34;;;6.14;77.47
56420;BME280;42323;52.170;7.538;2022-11-13T19:01:22;101577.81;;;6.00;78.16
56420;BME280;42323;52.170;7.538;2022-11-13T19:03:50;101579.81;;;6.08;78.47
56420;BME280;42323;52.170;7.538;2022-11-13T19:06:38;101552.88;;;5.97;78.58
56420;BME280;42323;52.170;7.538;2022-11-13T19:09:09;101557.13;;;5.98;78.42
56420;BME280;42323;52.170;7.538;2022-11-13T19:11:36;101553.84;;;5.96;78.55
56420;BME280;42323;52.170;7.538;2022-11-13T19:14:03;101519.34;;;5.72;78.64
56420;BME280;42323;52.170;7.538;2022-11-13T19:16:32;101564.34;;;5.95;79.13
56420;BME280;42323;52.170;7.538;2022-11-13T19:19:10;101570.28;;;5.97;79.42
56420;BME280;42323;52.170;7.538;2022-11-13T19:21:39;101567.78;;;5.95;79.38
56420;BME280;42323;52.170;7.538;2022-11-13T19:24:06;101564.97;;;5.87;79.30
56420;BME280;42323;52.170;7.538;2022-11-13T19:26:34;101548.53;;;5.75;79.60
56420;BME280;42323;52.170;7.538;2022-11-13T19:29:00;101554.81;;;5.73;79.44
56420;BME280;42323;52.170;7.538;2022-11-13T19:31:27;101536.06;;;5.58;79.69
56420;BME280;42323;52.170;7.538;2022-11-13T19:34:05;101573.72;;;5.75;80.23
56420;BME280;42323;52.170;7.538;2022-11-13T19:36:34;101585.19;;;5.72;79.98
56420;BME280;42323;52.170;7.538;2022-11-13T19:39:01;101577.97;;;5.65;80.64
56420;BME280;42323;52.170;7.538;2022-11-13T19:41:28;101577.75;;;5.57;80.16
56420;BME280;42323;52.170;7.538;2022-11-13T19:43:58;101585.31;;;5.60;80.26
56420;BME280;42323;52.170;7.538;2022-11-13T19:46:27;101599.50;;;5.56;80.41
56420;BME280;42323;52.170;7.538;2022-11-13T19:48:53;101583.19;;;5.42;80.77
56420;BME280;42323;52.170;7.538;2022-11-13T19:51:22;101580.38;;;5.45;80.82
56420;BME280;42323;52.170;7.538;2022-11-13T19:53:54;101564.31;;;5.29;80.98
56420;BME280;42323;52.170;7.538;2022-11-13T19:56:22;101563.03;;;5.23;81.54
56420;BME280;42323;52.170;7.538;2022-11-13T19:58:50;101565.59;;;5.35;81.36
56420;BME280;42323;52.170;7.538;2022-11-13T20:01:19;101559.56;;;5.34;81.67
56420;BME280;42323;52.170;7.538;2022-11-13T20:03:46;101545.44;;;5.27;81.42
56420;BME280;42323;52.170;7.538;2022-11-13T20:06:15;101552.50;;;5.25;81.76